Time;durP1;ratioP1;P1;durP2;ratioP2;P2;SDS_P1;SDS_P2;PMS_P1;PMS_P2;Temp;Humidity;BMP_temperature;BMP_pressure;BME280_temperature;BME280_humidity;BME280_pressure;Samples;Min_cycle;Max_cycle;Signal;HPM_P1;HPM_P2
2022/07/12 00:00:56;;;;;;;7.85;2.25;;;;;;;11.00;88.23;99735.47;8428235;28;20050;-74
2022/07/12 00:04:57;;;;;;;5.93;1.65;;;;;;;10.99;88.20;99739.31;8421444;28;20478;-74
2022/07/12 00:08:58;;;;;;;2.58;1.75;;;;;;;10.99;88.05;99728.50;8427544;28;20461;-74
2022/07/12 00:12:59;;;;;;;3.08;1.40;;;;;;;10.96;87.90;99729.06;8427563;28;20071;-73
2022/07/12 00:17:00;;;;;;;5.55;1.70;;;;;;;10.86;88.24;99731.94;8421353;28;20068;-74
2022/07/12 00:21:01;;;;;;;6.10;1.80;;;;;;;10.86;88.50;99737.34;8419000;28;20468;-74
2022/07/12 00:25:03;;;;;;;2.03;1.50;;;;;;;10.86;88.34;99735.44;8376570;28;20472;-74
2022/07/12 00:29:04;;;;;;;3.20;1.63;;;;;;;10.82;88.09;99739.03;8427545;28;20048;-73
2022/07/12 00:33:05;;;;;;;5.07;1.58;;;;;;;10.76;88.32;99740.22;8416001;28;20063;-73
2022/07/12 00:37:08;;;;;;;2.47;1.60;;;;;;;10.72;88.82;99736.50;8426993;28;20515;-74
2022/07/12 00:41:09;;;;;;;2.70;1.45;;;;;;;10.73;88.84;99746.22;8427517;28;20054;-74
2022/07/12 00:45:10;;;;;;;2.38;1.60;;;;;;;10.74;88.76;99753.19;8420659;28;20098;-73
2022/07/12 00:49:15;;;;;;;5.38;1.50;;;;;;;10.69;88.77;99750.56;8426043;28;20499;-74
2022/07/12 00:53:18;;;;;;;5.07;1.70;;;;;;;10.63;89.06;99751.78;8397833;28;20090;-74
2022/07/12 00:57:19;;;;;;;3.15;1.23;;;;;;;10.59;88.87;99751.53;8324484;28;20465;-73
2022/07/12 01:01:21;;;;;;;5.43;1.70;;;;;;;10.57;88.78;99754.53;8323132;28;20042;-73
2022/07/12 01:05:23;;;;;;;3.78;1.58;;;;;;;10.57;88.74;99754.53;8306498;28;20486;-73
2022/07/12 01:09:23;;;;;;;4.60;1.98;;;;;;;10.54;88.62;99763.22;8329168;28;20049;-74
2022/07/12 01:13:25;;;;;;;5.45;1.58;;;;;;;10.48;88.65;99767.09;8323200;28;20561;-74
2022/07/12 01:17:27;;;;;;;8.68;1.48;;;;;;;10.44;88.56;99763.38;8322915;28;20099;-73
2022/07/12 01:21:32;;;;;;;3.78;1.70;;;;;;;10.36;88.61;99763.22;8322168;28;20448;-73
2022/07/12 01:25:33;;;;;;;5.82;1.55;;;;;;;10.29;88.73;99757.38;8307921;28;20053;-74
2022/07/12 01:29:35;;;;;;;6.40;1.50;;;;;;;10.20;88.80;99754.53;8381394;28;20048;-74
2022/07/12 01:33:36;;;;;;;5.35;1.58;;;;;;;10.18;88.80;99762.09;8425593;28;20039;-73
2022/07/12 01:37:38;;;;;;;5.43;1.45;;;;;;;10.13;88.75;99759.44;8370274;28;20051;-73
2022/07/12 01:41:39;;;;;;;5.07;1.60;;;;;;;10.08;88.55;99756.81;8381574;28;20089;-74
2022/07/12 01:45:41;;;;;;;2.30;1.40;;;;;;;10.01;88.57;99767.16;8387425;28;20126;-73
2022/07/12 01:49:42;;;;;;;7.30;1.90;;;;;;;9.96;88.61;99764.50;8343696;28;20106;-74
2022/07/12 01:53:43;;;;;;;5.93;1.38;;;;;;;9.89;88.67;99764.03;8405203;28;20059;-74
2022/07/12 01:57:44;;;;;;;5.57;1.75;;;;;;;9.84;88.63;99767.59;8401623;28;20067;-73
2022/07/12 02:01:46;;;;;;;5.63;1.55;;;;;;;9.81;88.66;99764.69;8380729;28;20080;-74
2022/07/12 02:05:47;;;;;;;7.95;1.70;;;;;;;9.80;88.84;99765.78;8404239;28;20074;-74
2022/07/12 02:09:48;;;;;;;6.97;1.58;;;;;;;9.78;88.75;99758.00;8363456;28;20040;-74
2022/07/12 02:13:49;;;;;;;2.95;1.45;;;;;;;9.73;88.64;99756.13;8400578;28;20503;-73
2022/07/12 02:17:50;;;;;;;2.88;1.55;;;;;;;9.67;88.54;99765.41;8406861;28;20400;-74
2022/07/12 02:21:51;;;;;;;6.72;1.70;;;;;;;9.58;88.65;99769.78;8363030;28;20067;-74
2022/07/12 02:25:52;;;;;;;4.10;1.40;;;;;;;9.54;88.64;99757.97;8414986;28;20044;-74
2022/07/12 02:29:52;;;;;;;7.47;1.98;;;;;;;9.54;88.49;99763.38;8401308;28;20051;-74
2022/07/12 02:33:54;;;;;;;5.15;1.60;;;;;;;9.47;88.33;99757.50;8369342;28;20060;-74
2022/07/12 02:37:55;;;;;;;5.95;1.70;;;;;;;9.43;88.59;99767.25;8410382;28;20044;-73
2022/07/12 02:41:56;;;;;;;9.90;1.77;;;;;;;9.36;88.51;99761.38;8408342;28;20040;-74
2022/07/12 02:46:06;;;;;;;3.90;1.70;;;;;;;9.26;88.61;99772.25;8369505;28;20123;-73
2022/07/12 02:50:07;;;;;;;11.70;1.80;;;;;;;9.23;88.67;99767.44;8365809;28;20472;-74
2022/07/12 02:54:08;;;;;;;4.40;1.90;;;;;;;9.23;88.28;99762.06;8421217;28;20048;-73
2022/07/12 02:58:11;;;;;;;1.70;1.50;;;;;;;9.21;88.44;99765.03;8412589;28;20048;-74
2022/07/12 03:02:12;;;;;;;5.40;1.63;;;;;;;9.20;88.67;99773.41;8410478;28;20048;-74
2022/07/12 03:06:13;;;;;;;12.38;1.90;;;;;;;9.20;88.17;99773.41;8394041;28;20416;-73
2022/07/12 03:10:14;;;;;;;18.35;1.95;;;;;;;9.19;88.42;99774.50;8380148;28;20050;-74
2022/07/12 03:14:15;;;;;;;4.70;1.60;;;;;;;9.17;88.11;99779.34;8405950;28;20048;-74
2022/07/12 03:18:17;;;;;;;8.38;1.67;;;;;;;9.12;88.18;99787.47;8406418;28;20044;-75
2022/07/12 03:22:18;;;;;;;6.43;1.52;;;;;;;9.09;88.46;99771.91;8405244;28;20465;-74
2022/07/12 03:26:20;;;;;;;2.25;1.60;;;;;;;9.12;88.43;99776.69;8406974;28;20071;-74
2022/07/12 03:30:21;;;;;;;3.15;1.60;;;;;;;9.14;88.69;99780.75;8411692;28;20052;-75
2022/07/12 03:34:22;;;;;;;12.13;1.90;;;;;;;9.18;88.42;99780.97;8408483;28;20048;-73
2022/07/12 03:38:23;;;;;;;9.18;1.80;;;;;;;9.25;88.50;99786.84;8410136;28;20048;-74
2022/07/12 03:42:24;;;;;;;11.35;1.98;;;;;;;9.37;88.67;99784.56;8405589;28;20039;-73
2022/07/12 03:46:25;;;;;;;3.15;1.52;;;;;;;9.46;88.57;99787.47;8369196;28;20067;-73
2022/07/12 03:50:26;;;;;;;4.22;1.77;;;;;;;9.54;88.55;99784.94;8406118;28;20075;-73
2022/07/12 03:54:31;;;;;;;2.85;1.77;;;;;;;9.59;88.52;99782.19;8407940;28;20095;-73
2022/07/12 03:58:31;;;;;;;10.88;1.90;;;;;;;9.66;88.94;99793.44;8361256;28;20039;-74
2022/07/12 04:02:33;;;;;;;3.70;1.83;;;;;;;9.74;89.03;99784.72;8371881;28;20152;-75
2022/07/12 04:06:34;;;;;;;2.83;1.73;;;;;;;9.88;88.92;99794.84;8354106;28;20392;-74
2022/07/12 04:10:35;;;;;;;6.97;1.83;;;;;;;10.02;89.04;99795.75;8408695;28;20047;-75
2022/07/12 04:14:36;;;;;;;6.07;1.90;;;;;;;10.15;89.21;99789.66;8370624;28;20511;-75
2022/07/12 04:18:38;;;;;;;9.25;2.10;;;;;;;10.30;89.12;99781.38;8405369;28;20518;-75
2022/07/12 04:22:39;;;;;;;3.10;1.80;;;;;;;10.51;89.15;99782.72;8404855;28;20045;-75
2022/07/12 04:26:40;;;;;;;5.63;2.28;;;;;;;10.73;88.67;99778.63;8389743;28;20050;-74
2022/07/12 04:30:44;;;;;;;4.80;2.20;;;;;;;10.94;89.34;99774.53;8404676;28;20393;-74
2022/07/12 04:34:45;;;;;;;13.38;2.75;;;;;;;11.16;89.07;99776.56;8400418;28;20511;-74
2022/07/12 04:38:46;;;;;;;5.15;2.17;;;;;;;11.34;89.83;99773.03;8405701;28;20083;-75
2022/07/12 04:42:47;;;;;;;12.52;2.75;;;;;;;11.52;90.55;99763.25;8411594;28;20525;-74
2022/07/12 04:46:48;;;;;;;6.65;2.40;;;;;;;11.66;90.91;99774.88;8404952;28;20324;-74
2022/07/12 04:50:49;;;;;;;10.52;2.80;;;;;;;11.81;92.31;99771.91;8400062;28;20049;-74
2022/07/12 04:54:50;;;;;;;5.18;2.15;;;;;;;11.90;93.01;99780.94;8404112;28;20139;-74
2022/07/12 04:58:52;;;;;;;8.23;2.80;;;;;;;11.99;93.37;99768.31;8406813;28;20041;-74
2022/07/12 05:02:53;;;;;;;13.80;2.38;;;;;;;12.09;94.25;99762.69;8411016;28;20044;-75
2022/07/12 05:06:54;;;;;;;10.43;2.60;;;;;;;12.15;94.46;99764.19;8403827;28;20117;-75
2022/07/12 05:10:55;;;;;;;8.55;2.25;;;;;;;12.26;94.52;99762.88;8406659;28;20047;-75
2022/07/12 05:14:56;;;;;;;7.93;2.53;;;;;;;12.38;94.56;99769.66;8404185;28;20055;-75
2022/07/12 05:18:57;;;;;;;9.48;2.60;;;;;;;12.48;94.43;99764.00;8401259;28;20115;-75
2022/07/12 05:23:00;;;;;;;12.32;2.58;;;;;;;12.63;94.22;99760.97;8405756;28;20093;-75
2022/07/12 05:27:02;;;;;;;11.75;2.60;;;;;;;12.74;94.50;99751.50;8399878;28;20036;-75
2022/07/12 05:31:03;;;;;;;9.25;2.10;;;;;;;12.87;94.55;99756.06;8400841;28;20406;-74
2022/07/12 05:35:04;;;;;;;8.93;2.10;;;;;;;12.99;95.02;99742.75;8406497;28;20379;-74
2022/07/12 05:39:06;;;;;;;4.20;1.95;;;;;;;13.09;95.20;99737.06;8407845;28;20462;-75
2022/07/12 05:43:07;;;;;;;4.03;1.63;;;;;;;13.27;95.22;99745.34;8409560;28;20393;-74
2022/07/12 05:47:08;;;;;;;6.35;1.95;;;;;;;13.41;95.03;99754.19;8406295;28;20131;-74
2022/07/12 05:55:29;;;;;;;5.47;1.60;;;;;;;13.63;94.87;99751.44;8365536;28;20522;-74
2022/07/12 05:59:31;;;;;;;5.43;1.50;;;;;;;13.76;94.44;99755.94;8404831;28;20049;-74
2022/07/12 06:03:32;;;;;;;13.55;1.90;;;;;;;13.92;94.24;99754.41;8407263;28;20466;-74
2022/07/12 06:07:33;;;;;;;9.30;2.05;;;;;;;14.03;93.66;99748.69;8408664;28;20080;-74
2022/07/12 06:11:34;;;;;;;6.65;2.00;;;;;;;14.15;92.71;99751.59;8407064;28;20041;-74
2022/07/12 06:15:37;;;;;;;5.47;2.00;;;;;;;14.26;91.01;99761.03;8415219;28;20036;-74
2022/07/12 06:19:38;;;;;;;4.93;2.00;;;;;;;14.28;91.02;99762.31;8389317;28;20051;-74
2022/07/12 06:23:39;;;;;;;7.00;1.58;;;;;;;14.28;90.75;99756.06;8406459;28;20037;-75
2022/07/12 06:27:40;;;;;;;4.53;2.10;;;;;;;14.37;90.64;99754.22;8410311;28;20040;-74
2022/07/12 06:31:43;;;;;;;6.43;1.85;;;;;;;14.47;90.57;99753.91;8412944;28;20080;-74
2022/07/12 06:35:46;;;;;;;5.10;1.70;;;;;;;14.61;88.72;99743.69;8413924;28;20177;-73
2022/07/12 06:39:47;;;;;;;5.65;1.80;;;;;;;14.71;88.71;99740.63;8412089;28;20052;-74
2022/07/12 06:43:49;;;;;;;4.18;1.70;;;;;;;14.65;88.61;99744.63;8409234;28;20139;-74
2022/07/12 06:47:50;;;;;;;4.57;1.48;;;;;;;14.59;88.86;99735.03;8383420;28;20040;-75
2022/07/12 06:51:52;;;;;;;6.78;1.63;;;;;;;14.79;89.14;99728.19;8409155;28;20045;-75
2022/07/12 06:55:52;;;;;;;4.28;1.80;;;;;;;15.01;87.70;99735.34;8384347;28;20573;-74
2022/07/12 06:59:54;;;;;;;7.43;1.88;;;;;;;15.21;87.47;99734.66;8390182;28;20132;-75
2022/07/12 07:03:55;;;;;;;4.25;1.65;;;;;;;15.49;85.01;99735.06;8407440;28;20058;-74
2022/07/12 07:07:56;;;;;;;3.25;1.13;;;;;;;15.61;83.71;99738.72;8382624;28;20044;-75
2022/07/12 07:11:57;;;;;;;6.22;1.50;;;;;;;15.70;83.93;99730.53;8385073;28;20040;-74
2022/07/12 07:15:58;;;;;;;7.13;1.67;;;;;;;15.84;83.04;99749.38;8407105;28;20043;-74
2022/07/12 07:19:59;;;;;;;6.03;1.40;;;;;;;15.94;80.13;99740.81;8406110;28;20048;-74
2022/07/12 07:24:00;;;;;;;4.55;1.40;;;;;;;16.05;80.30;99736.59;8411099;28;20051;-74
2022/07/12 07:28:01;;;;;;;6.88;1.50;;;;;;;16.20;79.51;99737.94;8370869;28;20040;-75
2022/07/12 07:32:03;;;;;;;3.75;1.33;;;;;;;16.32;78.19;99740.75;8409957;28;20048;-76
2022/07/12 07:36:05;;;;;;;4.10;1.20;;;;;;;16.46;77.84;99725.72;8403932;28;20052;-74
2022/07/12 07:40:08;;;;;;;5.00;1.52;;;;;;;16.51;76.73;99726.66;8408415;28;20189;-75
2022/07/12 07:44:09;;;;;;;2.92;1.30;;;;;;;16.63;76.46;99730.28;8408750;28;20073;-74
2022/07/12 07:48:10;;;;;;;7.95;1.40;;;;;;;16.84;74.85;99735.72;8371570;28;20401;-74
2022/07/12 07:52:11;;;;;;;5.78;1.25;;;;;;;16.94;75.66;99729.84;8407586;28;20072;-74
2022/07/12 07:56:12;;;;;;;4.47;1.23;;;;;;;17.08;73.98;99735.78;8407610;28;20388;-75
2022/07/12 08:00:14;;;;;;;4.80;1.08;;;;;;;17.24;71.10;99744.94;8404624;28;20041;-75
2022/07/12 08:04:16;;;;;;;3.42;1.10;;;;;;;17.36;69.79;99735.19;8368396;28;20051;-74
2022/07/12 08:08:18;;;;;;;4.70;1.05;;;;;;;17.55;69.57;99746.41;8406008;28;20559;-75
2022/07/12 08:12:20;;;;;;;1.95;0.80;;;;;;;17.66;67.49;99744.81;8408356;28;20517;-74
2022/07/12 08:16:21;;;;;;;12.10;0.98;;;;;;;17.73;65.50;99750.53;8401658;28;20064;-75
2022/07/12 08:20:24;;;;;;;5.18;2.00;;;;;;;17.91;66.95;99745.66;8408584;28;20040;-74
2022/07/12 08:24:25;;;;;;;8.80;1.55;;;;;;;18.09;64.74;99747.78;8408135;28;20048;-74
2022/07/12 08:28:26;;;;;;;2.03;0.85;;;;;;;18.26;64.91;99741.28;8404457;28;20053;-75
2022/07/12 08:32:27;;;;;;;6.47;1.00;;;;;;;18.65;63.28;99737.03;8408537;28;20420;-75
2022/07/12 08:36:29;;;;;;;2.80;0.80;;;;;;;18.96;61.03;99748.06;8387272;28;20139;-75
2022/07/12 08:40:30;;;;;;;2.78;0.70;;;;;;;19.12;60.28;99750.06;8414332;28;20047;-75
2022/07/12 08:44:31;;;;;;;1.58;0.70;;;;;;;19.21;60.04;99745.22;8386564;28;20044;-75
2022/07/12 08:48:34;;;;;;;5.63;0.95;;;;;;;19.30;61.14;99746.63;8407368;28;20040;-75
2022/07/12 08:52:41;;;;;;;4.82;0.90;;;;;;;19.37;60.80;99751.50;8408077;28;20052;-75
2022/07/12 08:56:49;;;;;;;1.60;0.90;;;;;;;19.45;60.43;99742.38;8408397;28;20048;-75
2022/07/12 09:00:52;;;;;;;3.03;1.00;;;;;;;19.55;60.47;99744.59;8406397;28;20048;-74
2022/07/12 09:05:07;;;;;;;3.15;0.75;;;;;;;19.40;58.57;99739.88;8375923;28;20146;-75
2022/07/12 09:09:09;;;;;;;2.92;0.80;;;;;;;19.57;59.24;99739.53;8349297;28;20481;-74
2022/07/12 09:13:10;;;;;;;7.75;0.77;;;;;;;19.64;59.13;99750.69;8406772;28;20049;-75
2022/07/12 09:17:14;;;;;;;5.75;1.17;;;;;;;19.57;59.81;99745.00;8358005;28;20056;-74
2022/07/12 09:21:29;;;;;;;6.70;0.70;;;;;;;19.63;59.64;99749.09;8384038;28;20552;-75
2022/07/12 09:25:34;;;;;;;4.18;0.90;;;;;;;19.67;57.83;99749.97;8361750;28;20407;-75
2022/07/12 09:29:48;;;;;;;1.70;0.70;;;;;;;19.80;57.90;99746.00;8406168;28;20056;-75
2022/07/12 09:38:22;;;;;;;2.08;0.75;;;;;;;20.14;57.83;99740.94;8424737;28;20052;-75
2022/07/12 09:42:26;;;;;;;6.95;1.10;;;;;;;20.46;57.20;99747.16;8373159;28;20052;-74
2022/07/12 09:46:28;;;;;;;2.00;0.60;;;;;;;20.47;56.25;99755.00;8388334;28;20052;-74
2022/07/12 09:50:30;;;;;;;0.77;0.63;;;;;;;20.80;53.66;99751.00;8379885;28;20059;-74
2022/07/12 09:54:32;;;;;;;1.88;0.90;;;;;;;21.10;52.99;99760.22;8407237;28;20040;-73
2022/07/12 09:58:40;;;;;;;1.90;0.70;;;;;;;21.05;51.77;99741.31;8397784;28;20059;-73
2022/07/12 10:02:41;;;;;;;1.40;0.65;;;;;;;21.17;51.90;99754.91;8420173;28;20064;-75
2022/07/12 10:06:43;;;;;;;1.40;0.70;;;;;;;21.07;51.73;99766.47;8396288;28;20048;-75
2022/07/12 10:10:45;;;;;;;4.95;0.70;;;;;;;21.43;50.24;99746.78;8373675;28;20397;-74
2022/07/12 10:14:47;;;;;;;3.17;0.77;;;;;;;21.84;50.29;99744.31;8401426;28;20529;-75
2022/07/12 10:19:10;;;;;;;1.90;0.80;;;;;;;22.14;50.16;99736.97;8369134;28;20110;-75
2022/07/12 10:23:34;;;;;;;2.78;0.70;;;;;;;22.02;50.09;99750.13;8418097;28;20063;-75
2022/07/12 10:27:37;;;;;;;1.90;0.63;;;;;;;21.51;50.88;99752.41;8425333;28;20392;-74
2022/07/12 10:31:40;;;;;;;2.50;0.82;;;;;;;20.97;51.29;99756.06;8406043;28;20086;-75
2022/07/12 10:36:00;;;;;;;2.85;0.60;;;;;;;21.08;52.65;99740.59;8411729;28;20132;-75
2022/07/12 10:40:11;;;;;;;6.78;0.85;;;;;;;20.97;52.89;99740.38;8422276;28;20048;-76
2022/07/12 10:44:34;;;;;;;0.85;0.70;;;;;;;20.88;53.30;99741.78;8414643;28;20404;-76
2022/07/12 10:48:36;;;;;;;2.85;0.70;;;;;;;21.48;51.90;99735.47;8367697;28;20098;-75
2022/07/12 10:52:38;;;;;;;1.60;0.60;;;;;;;21.26;50.42;99740.94;8409690;28;20097;-75
2022/07/12 10:56:56;;;;;;;3.65;0.68;;;;;;;21.37;50.25;99739.97;8425791;28;20598;-75
2022/07/12 11:00:58;;;;;;;1.85;0.60;;;;;;;22.08;49.00;99726.66;8422759;28;20044;-75
2022/07/12 11:05:00;;;;;;;2.05;0.60;;;;;;;22.20;47.58;99729.19;8413276;28;20487;-75
2022/07/12 11:09:10;;;;;;;1.25;0.65;;;;;;;22.15;49.45;99732.28;8423889;28;20052;-75
2022/07/12 11:13:24;;;;;;;1.00;0.60;;;;;;;22.28;46.90;99725.38;8431770;28;20553;-74
2022/07/12 11:17:30;;;;;;;1.02;0.70;;;;;;;21.99;47.33;99718.69;8430981;28;20055;-75
2022/07/12 11:21:34;;;;;;;1.25;0.50;;;;;;;21.60;47.62;99717.22;8422005;28;20056;-74
2022/07/12 11:25:36;;;;;;;2.17;0.60;;;;;;;21.30;48.11;99709.66;8419363;28;20052;-75
2022/07/12 11:29:38;;;;;;;2.88;0.85;;;;;;;21.83;47.57;99709.75;8413981;28;20391;-75
2022/07/12 11:33:44;;;;;;;1.20;0.60;;;;;;;22.48;47.06;99712.25;8430126;28;20056;-76
2022/07/12 11:37:57;;;;;;;7.07;0.60;;;;;;;22.72;45.62;99709.06;8408368;28;20052;-76
2022/07/12 11:42:00;;;;;;;10.15;0.65;;;;;;;22.94;46.84;99697.16;8428725;28;20051;-76
2022/07/12 11:46:05;;;;;;;1.63;0.45;;;;;;;23.26;44.16;99680.16;8338979;28;20117;-76
2022/07/12 11:50:07;;;;;;;2.13;0.57;;;;;;;23.20;44.67;99700.94;8403349;28;20047;-75
2022/07/12 11:54:09;;;;;;;1.58;0.60;;;;;;;23.27;43.94;99695.47;8427846;28;20101;-75
2022/07/12 11:58:12;;;;;;;3.10;0.50;;;;;;;23.41;42.47;99704.69;8400181;28;20055;-76
2022/07/12 12:02:15;;;;;;;2.33;0.70;;;;;;;22.94;41.20;99697.16;8419540;28;20052;-74
2022/07/12 12:06:16;;;;;;;0.90;0.73;;;;;;;22.79;43.19;99700.88;8408858;28;20048;-76
2022/07/12 12:10:19;;;;;;;1.42;0.85;;;;;;;22.73;43.27;99681.19;8386636;28;20049;-75
2022/07/12 12:14:20;;;;;;;1.85;0.75;;;;;;;22.59;44.53;99685.66;8406997;28;20060;-74
2022/07/12 12:18:34;;;;;;;2.10;0.60;;;;;;;22.39;44.64;99689.75;8407787;28;20083;-75
2022/07/12 12:22:37;;;;;;;2.33;0.70;;;;;;;22.32;44.40;99688.47;8409990;28;20048;-75
2022/07/12 12:26:39;;;;;;;3.95;0.60;;;;;;;23.04;43.72;99679.94;8428950;28;20090;-75
2022/07/12 12:30:51;;;;;;;1.48;0.55;;;;;;;23.37;42.83;99667.25;8428495;28;20058;-75
2022/07/12 12:35:10;;;;;;;1.17;0.55;;;;;;;23.01;43.24;99680.69;8341933;28;20499;-76
2022/07/12 12:39:11;;;;;;;1.08;0.63;;;;;;;22.95;44.51;99676.66;8337831;28;20113;-75
2022/07/12 12:43:13;;;;;;;0.90;0.35;;;;;;;23.15;42.82;99675.31;8426477;28;20044;-75
2022/07/12 12:51:55;;;;;;;0.98;0.68;;;;;;;22.66;44.34;99674.75;8257273;28;20085;-75
2022/07/12 12:55:56;;;;;;;1.67;0.65;;;;;;;22.51;43.38;99684.81;8242882;28;20153;-75
2022/07/12 12:59:57;;;;;;;1.70;0.60;;;;;;;22.30;44.20;99668.81;8259226;28;20489;-76
2022/07/12 13:03:58;;;;;;;1.50;0.70;;;;;;;22.25;45.47;99677.41;8258873;28;20073;-76
2022/07/12 13:08:02;;;;;;;0.85;0.47;;;;;;;22.18;44.29;99674.53;8242578;28;20058;-75
2022/07/12 13:12:07;;;;;;;1.40;0.60;;;;;;;22.02;44.79;99684.13;8259107;28;20509;-75
2022/07/12 13:16:08;;;;;;;3.28;0.75;;;;;;;21.82;46.17;99691.66;8258063;28;20141;-76
2022/07/12 13:20:12;;;;;;;2.08;0.70;;;;;;;21.60;48.19;99689.72;8257929;28;20133;-75
2022/07/12 13:24:16;;;;;;;1.25;0.55;;;;;;;21.58;48.73;99681.03;8226089;28;20062;-76
2022/07/12 13:28:17;;;;;;;2.00;0.68;;;;;;;21.85;48.98;99690.91;8376176;28;20059;-76
2022/07/12 13:32:19;;;;;;;0.73;0.70;;;;;;;22.73;46.21;99680.38;8409643;28;20045;-76
2022/07/12 13:36:21;;;;;;;6.03;0.80;;;;;;;23.26;44.84;99667.16;8417462;28;20503;-75
2022/07/12 13:40:23;;;;;;;0.52;0.40;;;;;;;23.94;43.20;99665.75;8414712;28;20044;-76
2022/07/12 13:44:23;;;;;;;2.92;0.50;;;;;;;25.32;40.17;99669.06;8414907;28;20182;-76
2022/07/12 13:48:25;;;;;;;0.50;0.50;;;;;;;25.47;38.52;99661.56;8411537;28;20036;-76
2022/07/12 13:52:26;;;;;;;0.57;0.47;;;;;;;24.20;40.32;99661.97;8420555;28;20078;-76
2022/07/12 13:56:27;;;;;;;1.33;0.57;;;;;;;23.57;41.07;99660.38;8422422;28;20048;-77
2022/07/12 14:00:28;;;;;;;1.77;0.70;;;;;;;24.69;39.38;99653.91;8403979;28;20407;-76
2022/07/12 14:04:30;;;;;;;0.95;0.68;;;;;;;26.13;36.35;99664.66;8422168;28;20131;-76
2022/07/12 14:08:31;;;;;;;1.27;0.60;;;;;;;27.25;35.82;99663.38;8424234;28;20085;-75
2022/07/12 14:12:33;;;;;;;3.05;1.05;;;;;;;28.89;33.29;99652.19;8418677;28;20058;-77
2022/07/12 14:16:37;;;;;;;2.63;0.70;;;;;;;30.38;30.27;99658.00;8416372;28;20488;-77
2022/07/12 14:20:38;;;;;;;3.85;0.70;;;;;;;31.49;28.95;99664.72;8383709;28;20052;-77
2022/07/12 14:24:39;;;;;;;1.92;0.60;;;;;;;33.17;29.07;99656.84;8422828;28;20032;-76
2022/07/12 14:28:40;;;;;;;1.05;0.40;;;;;;;33.91;26.66;99655.16;8413159;28;20551;-76
2022/07/12 14:32:45;;;;;;;0.82;0.50;;;;;;;33.61;26.74;99655.81;8420703;28;20067;-76
2022/07/12 14:36:46;;;;;;;2.10;0.70;;;;;;;31.28;27.74;99649.28;8415643;28;20140;-78
2022/07/12 14:40:47;;;;;;;1.40;0.60;;;;;;;29.61;30.25;99652.66;8376443;28;20416;-77
2022/07/12 14:44:48;;;;;;;1.40;0.70;;;;;;;29.41;31.43;99643.47;8421983;28;20035;-76
2022/07/12 14:48:49;;;;;;;1.02;0.47;;;;;;;31.38;29.26;99643.47;8393427;28;20498;-75
2022/07/12 14:52:53;;;;;;;2.80;0.57;;;;;;;33.09;26.49;99640.28;8419848;28;20054;-76
2022/07/12 14:56:54;;;;;;;1.35;0.65;;;;;;;34.12;24.70;99624.81;8396221;28;20135;-75
2022/07/12 15:00:56;;;;;;;4.20;0.70;;;;;;;34.18;24.92;99628.59;8427129;28;20041;-75
2022/07/12 15:05:02;;;;;;;2.72;0.70;;;;;;;34.43;23.84;99622.88;8420722;28;20845;-76
2022/07/12 15:09:03;;;;;;;1.77;0.60;;;;;;;34.87;23.93;99628.44;8426269;28;20136;-76
2022/07/12 15:13:04;;;;;;;2.67;0.70;;;;;;;34.18;23.67;99628.59;8429961;28;20036;-75
2022/07/12 15:17:05;;;;;;;1.83;0.63;;;;;;;31.62;26.06;99623.75;8427823;28;20054;-76
2022/07/12 15:21:09;;;;;;;0.70;0.50;;;;;;;28.97;29.11;99611.16;8390004;28;20052;-76
2022/07/12 15:25:10;;;;;;;5.90;0.60;;;;;;;27.84;31.51;99616.13;8393196;28;20051;-75
2022/07/12 15:29:12;;;;;;;1.20;0.60;;;;;;;27.40;31.67;99618.88;8419185;28;20107;-76
2022/07/12 15:33:13;;;;;;;1.10;0.70;;;;;;;28.60;30.99;99614.84;8427143;28;20415;-75
2022/07/12 15:37:14;;;;;;;2.70;0.70;;;;;;;29.70;28.50;99611.16;8426629;28;20138;-75
2022/07/12 15:41:15;;;;;;;2.17;0.80;;;;;;;30.14;28.63;99615.50;8422864;28;20044;-77
2022/07/12 15:45:16;;;;;;;2.67;0.85;;;;;;;31.09;26.59;99609.13;8425674;28;20067;-77
2022/07/12 15:49:17;;;;;;;1.10;0.90;;;;;;;31.27;26.96;99606.66;8406434;28;20047;-76
2022/07/12 15:53:27;;;;;;;5.45;0.80;;;;;;;30.06;27.73;99604.94;8424106;28;20086;-76
2022/07/12 15:57:30;;;;;;;2.08;0.60;;;;;;;29.23;28.95;99592.88;8394509;28;20098;-75
2022/07/12 16:01:31;;;;;;;0.90;0.63;;;;;;;28.40;29.51;99598.03;8403758;28;20044;-76
2022/07/12 16:05:33;;;;;;;3.33;0.60;;;;;;;27.90;30.77;99591.47;8421658;28;20052;-77
2022/07/12 16:09:35;;;;;;;0.55;0.50;;;;;;;27.65;31.46;99594.53;8413616;28;20048;-75
2022/07/12 16:13:36;;;;;;;4.40;0.85;;;;;;;27.58;31.40;99592.59;8426814;28;20048;-75
2022/07/12 16:17:37;;;;;;;3.17;0.82;;;;;;;27.14;31.69;99593.34;8407545;28;20048;-75
2022/07/12 16:21:38;;;;;;;5.32;0.60;;;;;;;26.72;31.43;99599.16;8429724;28;20086;-76
2022/07/12 16:25:40;;;;;;;0.75;0.47;;;;;;;26.39;32.83;99589.44;8424948;28;20036;-75
2022/07/12 16:29:43;;;;;;;0.50;0.50;;;;;;;26.13;33.24;99587.94;8425865;28;20131;-78
2022/07/12 16:33:44;;;;;;;1.95;0.70;;;;;;;25.86;33.15;99584.88;8428198;28;20052;-76
2022/07/12 16:37:46;;;;;;;1.63;0.70;;;;;;;25.64;33.65;99589.66;8409638;28;20464;-75
2022/07/12 16:41:47;;;;;;;2.78;0.60;;;;;;;25.32;33.38;99594.44;8428710;28;20121;-75
2022/07/12 16:45:48;;;;;;;1.27;0.50;;;;;;;24.81;34.52;99590.00;8381233;28;20068;-75
2022/07/12 16:49:52;;;;;;;3.33;0.73;;;;;;;24.56;35.94;99597.47;8415263;28;20430;-74
2022/07/12 16:53:56;;;;;;;2.78;0.75;;;;;;;24.32;36.58;99603.69;8383439;28;20056;-75
2022/07/12 16:57:57;;;;;;;2.45;0.68;;;;;;;24.19;37.52;99605.19;8415962;28;20044;-76
2022/07/12 17:02:00;;;;;;;2.80;0.93;;;;;;;24.28;37.89;99597.34;8380574;28;21745;-74
2022/07/12 17:06:02;;;;;;;1.35;0.60;;;;;;;24.22;37.32;99588.66;8414681;28;20040;-75
2022/07/12 17:10:09;;;;;;;2.70;0.65;;;;;;;23.99;37.59;99597.22;8406118;28;20047;-76
2022/07/12 17:14:12;;;;;;;1.23;0.70;;;;;;;23.79;37.69;99590.41;8315067;28;20038;-74
2022/07/12 17:18:14;;;;;;;4.97;0.88;;;;;;;23.65;37.15;99598.56;8318770;28;20050;-74
2022/07/12 17:22:15;;;;;;;10.70;0.73;;;;;;;23.43;38.30;99591.28;8318463;28;20501;-74
2022/07/12 17:26:16;;;;;;;3.13;0.70;;;;;;;23.25;38.90;99587.63;8318607;28;20077;-74
2022/07/12 17:30:17;;;;;;;2.30;1.45;;;;;;;23.06;39.74;99589.44;8319146;28;20535;-76
2022/07/12 17:34:19;;;;;;;2.00;0.75;;;;;;;22.95;38.69;99588.53;8321993;28;20049;-75
2022/07/12 17:38:20;;;;;;;3.72;0.88;;;;;;;22.94;38.60;99608.22;8285056;28;20596;-74
2022/07/12 17:42:21;;;;;;;4.43;0.70;;;;;;;22.83;38.41;99591.59;8322584;28;20038;-76
2022/07/12 17:46:22;;;;;;;4.57;1.30;;;;;;;22.65;38.85;99601.59;8419578;28;20479;-75
2022/07/12 17:50:24;;;;;;;33.35;6.75;;;;;;;22.52;40.18;99597.53;8425348;28;20499;-75
2022/07/12 17:54:25;;;;;;;35.00;7.30;;;;;;;22.35;40.03;99604.41;8407286;28;20154;-74
2022/07/12 17:58:39;;;;;;;3.45;1.15;;;;;;;22.29;40.20;99606.69;8420313;28;20040;-74
2022/07/12 18:02:40;;;;;;;2.63;0.70;;;;;;;22.19;40.21;99601.84;8422242;28;20415;-74
2022/07/12 18:06:44;;;;;;;5.25;0.70;;;;;;;22.12;40.65;99604.50;8368060;28;20245;-74
2022/07/12 18:10:45;;;;;;;2.55;0.80;;;;;;;22.01;41.37;99595.31;8380984;28;20056;-74
2022/07/12 18:14:47;;;;;;;3.17;0.90;;;;;;;21.94;40.89;99600.75;8427450;28;20071;-75
2022/07/12 18:18:48;;;;;;;2.25;0.73;;;;;;;21.95;40.58;99591.31;8431552;28;20070;-74
2022/07/12 18:22:49;;;;;;;1.70;0.60;;;;;;;21.81;41.58;99602.09;8424313;28;20044;-75
2022/07/12 18:26:50;;;;;;;1.27;0.70;;;;;;;21.52;42.90;99600.09;8393751;28;20134;-75
2022/07/12 18:30:52;;;;;;;1.98;0.80;;;;;;;21.34;44.07;99595.13;8431578;28;20844;-74
2022/07/12 18:34:52;;;;;;;6.03;1.02;;;;;;;21.16;43.42;99599.50;8431784;28;20516;-74
2022/07/12 18:38:56;;;;;;;3.70;1.02;;;;;;;21.06;43.99;99600.09;8431815;28;20126;-74
2022/07/12 18:43:01;;;;;;;2.47;0.70;;;;;;;20.86;45.13;99601.31;8431295;28;20044;-75
2022/07/12 18:47:03;;;;;;;3.33;0.80;;;;;;;20.73;45.47;99602.66;8423257;28;20073;-75
2022/07/12 18:51:04;;;;;;;2.40;0.70;;;;;;;20.56;45.82;99604.72;8426552;28;20048;-75
2022/07/12 18:55:06;;;;;;;5.10;0.90;;;;;;;20.35;46.77;99609.78;8395040;28;20055;-75
2022/07/12 18:59:07;;;;;;;8.98;1.35;;;;;;;20.18;47.40;99599.19;8424470;28;20476;-74
2022/07/12 19:03:08;;;;;;;2.92;0.82;;;;;;;19.98;48.32;99601.16;8374202;28;20044;-75
2022/07/12 19:07:09;;;;;;;1.48;0.80;;;;;;;19.81;48.84;99605.09;8424357;28;20052;-75
2022/07/12 19:11:11;;;;;;;5.45;1.10;;;;;;;19.64;50.02;99602.72;8390819;28;20048;-75
2022/07/12 19:15:12;;;;;;;3.17;1.00;;;;;;;19.45;50.68;99610.91;8426426;28;20404;-75